Time;durP1;ratioP1;P1;durP2;ratioP2;P2;SDS_P1;SDS_P2;PMS_P1;PMS_P2;Temp;Humidity;BMP_temperature;BMP_pressure;BME280_temperature;BME280_humidity;BME280_pressure;Samples;Min_cycle;Max_cycle;Signal;HPM_P1;HPM_P2
2023/03/17 00:04:11;;;;;;;23.30;17.60;;;22.90;54.20;;;;;;220783;1263;23106;-57
2023/03/17 00:09:17;;;;;;;24.20;17.60;;;22.80;54.50;;;;;;220821;1255;24327;-59
2023/03/17 00:14:21;;;;;;;26.00;17.70;;;22.70;54.80;;;;;;220638;1256;24221;-58
2023/03/17 00:19:31;;;;;;;23.30;17.80;;;22.70;54.60;;;;;;220765;1254;25352;-58
2023/03/17 00:24:35;;;;;;;24.40;18.00;;;22.70;54.60;;;;;;220759;1271;22663;-59
2023/03/17 00:29:39;;;;;;;22.40;18.10;;;22.60;54.60;;;;;;220812;1272;22537;-59
2023/03/17 00:34:44;;;;;;;26.70;18.10;;;22.50;54.60;;;;;;220637;1273;22523;-61
2023/03/17 00:39:48;;;;;;;20.90;17.30;;;22.50;55.00;;;;;;220857;1271;22525;-59
2023/03/17 00:44:53;;;;;;;21.40;16.30;;;22.40;54.90;;;;;;220776;1264;26633;-58
2023/03/17 00:49:57;;;;;;;22.10;17.90;;;22.30;55.10;;;;;;220681;1271;24196;-59
2023/03/17 00:55:03;;;;;;;22.10;16.50;;;22.20;55.00;;;;;;222245;1260;22515;-56
2023/03/17 01:00:16;;;;;;;22.40;16.60;;;22.20;54.90;;;;;;230174;1262;22155;-57
2023/03/17 01:05:23;;;;;;;22.80;17.00;;;22.20;54.80;;;;;;225118;1264;22922;-56
2023/03/17 01:10:28;;;;;;;23.50;17.10;;;22.30;54.70;;;;;;224674;1250;22532;-57
2023/03/17 01:15:33;;;;;;;18.00;16.00;;;22.20;54.40;;;;;;230101;1263;23524;-56
2023/03/17 01:20:38;;;;;;;20.00;16.00;;;22.20;54.40;;;;;;227740;1254;22752;-58
2023/03/17 01:25:43;;;;;;;22.00;17.50;;;22.20;54.30;;;;;;222358;1247;25316;-59
2023/03/17 01:30:48;;;;;;;20.60;15.90;;;22.10;54.50;;;;;;222518;1264;22518;-58
2023/03/17 01:35:53;;;;;;;18.30;15.70;;;21.90;55.30;;;;;;222366;1263;22526;-61
2023/03/17 01:40:57;;;;;;;17.90;14.80;;;21.90;55.80;;;;;;222446;1255;22532;-57
2023/03/17 01:46:29;;;;;;;17.80;15.30;;;21.80;56.20;;;;;;222199;1263;25308;-59
2023/03/17 01:52:11;;;;;;;17.30;14.50;;;21.80;55.60;;;;;;222254;1267;25214;-59
2023/03/17 01:57:31;;;;;;;16.50;14.50;;;21.90;55.50;;;;;;222614;1247;22514;-60
2023/03/17 02:02:39;;;;;;;19.00;14.70;;;22.20;55.00;;;;;;222385;1248;22543;-58
2023/03/17 02:07:47;;;;;;;16.10;14.10;;;22.40;54.30;;;;;;222435;1267;22793;-61
2023/03/17 02:12:57;;;;;;;17.30;14.30;;;22.70;54.60;;;;;;222241;1263;25170;-59
2023/03/17 02:18:02;;;;;;;17.20;14.30;;;22.80;53.50;;;;;;222263;1256;26605;-56
2023/03/17 02:23:07;;;;;;;15.30;13.00;;;23.00;53.00;;;;;;222104;1255;22554;-55
2023/03/17 02:28:15;;;;;;;16.70;14.30;;;23.00;53.10;;;;;;222329;1263;24374;-59
2023/03/17 02:33:19;;;;;;;17.90;13.20;;;23.00;52.60;;;;;;222173;1262;25288;-56
2023/03/17 02:38:23;;;;;;;15.30;13.70;;;23.00;52.80;;;;;;222338;1262;22606;-58
2023/03/17 02:43:28;;;;;;;20.10;13.30;;;22.90;52.90;;;;;;222289;1247;22524;-59
2023/03/17 02:48:35;;;;;;;12.60;11.30;;;22.90;53.30;;;;;;222331;1255;22519;-61
2023/03/17 02:53:39;;;;;;;16.40;12.90;;;23.00;53.00;;;;;;222370;1264;23031;-59
2023/03/17 02:58:43;;;;;;;14.60;12.40;;;23.00;53.10;;;;;;222305;1255;23569;-62
2023/03/17 03:03:47;;;;;;;13.70;12.20;;;23.00;52.80;;;;;;222350;1247;24059;-56
2023/03/17 03:08:52;;;;;;;12.90;11.40;;;23.00;52.70;;;;;;222296;1262;22521;-59
2023/03/17 03:13:56;;;;;;;15.90;12.10;;;23.10;52.60;;;;;;222338;1254;24267;-55
2023/03/17 03:19:01;;;;;;;13.00;11.60;;;23.10;52.50;;;;;;222073;1247;22511;-59
2023/03/17 03:24:06;;;;;;;14.00;11.20;;;23.10;52.60;;;;;;222298;1266;22555;-59
2023/03/17 03:29:10;;;;;;;14.50;11.50;;;23.10;52.50;;;;;;222177;1255;22594;-58
2023/03/17 03:34:15;;;;;;;13.20;11.20;;;23.10;52.50;;;;;;222129;1255;23426;-58
2023/03/17 03:39:19;;;;;;;12.00;10.80;;;23.10;52.70;;;;;;222378;1254;24348;-55
2023/03/17 03:44:23;;;;;;;14.00;11.20;;;23.10;53.30;;;;;;222160;1254;22804;-61
2023/03/17 03:49:27;;;;;;;14.50;11.40;;;23.10;52.50;;;;;;222221;1264;22510;-59
2023/03/17 03:54:32;;;;;;;14.20;10.60;;;23.20;52.30;;;;;;222230;1254;22690;-57
2023/03/17 03:59:36;;;;;;;14.70;10.90;;;23.30;52.80;;;;;;222181;1262;22508;-57
2023/03/17 04:04:40;;;;;;;13.20;10.50;;;23.30;52.00;;;;;;222235;1267;22508;-56
2023/03/17 04:09:44;;;;;;;12.80;10.80;;;23.30;51.70;;;;;;222360;1262;22802;-58
2023/03/17 04:14:49;;;;;;;11.50;9.50;;;23.20;51.70;;;;;;222333;1254;22771;-60
2023/03/17 04:19:53;;;;;;;12.70;10.00;;;23.10;51.70;;;;;;222135;1265;24253;-61
2023/03/17 04:24:58;;;;;;;11.70;10.30;;;23.10;53.00;;;;;;222198;1264;25311;-59
2023/03/17 04:30:03;;;;;;;11.60;10.30;;;22.80;52.30;;;;;;222178;1247;22525;-62
2023/03/17 04:35:12;;;;;;;12.50;10.70;;;22.80;52.50;;;;;;222294;1247;25198;-57
2023/03/17 04:40:17;;;;;;;11.40;9.50;;;22.70;52.90;;;;;;222087;1255;23877;-59
2023/03/17 04:45:21;;;;;;;11.70;10.40;;;22.60;52.90;;;;;;222253;1262;23897;-59
2023/03/17 04:50:26;;;;;;;12.30;10.30;;;22.50;53.00;;;;;;222223;1255;22521;-58
2023/03/17 04:55:30;;;;;;;12.00;9.80;;;22.50;53.20;;;;;;222129;1265;22631;-60
2023/03/17 05:00:37;;;;;;;13.30;9.70;;;22.40;53.50;;;;;;222232;1256;25460;-62
2023/03/17 05:05:41;;;;;;;11.00;9.30;;;22.40;53.30;;;;;;222179;1265;22609;-60
2023/03/17 05:10:45;;;;;;;11.20;9.70;;;22.30;53.50;;;;;;222265;1264;24377;-59
2023/03/17 05:15:52;;;;;;;11.70;9.30;;;22.30;53.30;;;;;;222312;1254;22506;-58
2023/03/17 05:20:56;;;;;;;11.50;9.70;;;22.10;53.70;;;;;;222119;1247;23004;-57
2023/03/17 05:26:01;;;;;;;10.90;9.00;;;22.10;53.80;;;;;;222304;1262;22509;-57
2023/03/17 05:31:05;;;;;;;11.10;9.60;;;22.10;53.60;;;;;;222221;1255;22513;-60
2023/03/17 05:36:13;;;;;;;9.60;8.60;;;22.00;54.00;;;;;;222001;1255;22510;-60
2023/03/17 05:41:17;;;;;;;10.90;9.70;;;22.00;53.90;;;;;;222335;1262;22510;-59
2023/03/17 05:46:21;;;;;;;12.90;9.30;;;22.00;53.70;;;;;;222232;1265;22778;-59
2023/03/17 05:51:26;;;;;;;12.50;9.90;;;21.90;54.10;;;;;;222130;1265;23951;-60
2023/03/17 05:56:32;;;;;;;10.10;8.40;;;21.90;53.70;;;;;;222280;1262;24356;-59
2023/03/17 06:01:36;;;;;;;10.80;8.40;;;21.90;53.70;;;;;;221984;1265;22517;-53
2023/03/17 06:06:40;;;;;;;9.90;8.60;;;22.10;53.40;;;;;;222155;1255;22457;-60
2023/03/17 06:11:45;;;;;;;9.60;8.50;;;22.30;53.10;;;;;;222064;1263;22637;-60
2023/03/17 06:16:49;;;;;;;10.70;8.40;;;22.50;52.80;;;;;;222123;1262;22566;-59
2023/03/17 06:21:53;;;;;;;9.20;8.30;;;22.80;52.10;;;;;;222065;1262;23926;-58
2023/03/17 06:26:58;;;;;;;11.80;8.80;;;22.90;51.60;;;;;;222195;1265;162368;-58
2023/03/17 06:32:02;;;;;;;10.30;8.00;;;23.00;51.50;;;;;;222234;1262;22607;-57
2023/03/17 06:37:23;;;;;;;10.40;8.80;;;23.00;52.10;;;;;;222336;1263;22527;-60
2023/03/17 06:42:27;;;;;;;9.80;8.40;;;23.00;51.30;;;;;;222181;1264;25273;-58
2023/03/17 06:47:31;;;;;;;9.80;7.80;;;23.00;51.40;;;;;;221997;1262;25285;-51
2023/03/17 06:52:36;;;;;;;10.50;8.80;;;23.00;51.50;;;;;;221999;1263;22508;-56
2023/03/17 06:57:40;;;;;;;10.00;8.30;;;23.00;51.30;;;;;;221982;1265;22514;-50
2023/03/17 07:02:45;;;;;;;13.30;7.90;;;23.10;51.40;;;;;;222020;1265;24268;-50
2023/03/17 07:07:49;;;;;;;10.00;8.60;;;23.10;51.20;;;;;;221979;1262;25380;-48
2023/03/17 07:12:53;;;;;;;21.00;8.10;;;23.20;51.50;;;;;;221955;1266;26603;-46
2023/03/17 07:17:58;;;;;;;12.00;8.60;;;23.30;51.30;;;;;;222084;1263;22510;-51
2023/03/17 07:23:02;;;;;;;9.50;8.10;;;23.30;50.60;;;;;;221928;1255;24209;-53
2023/03/17 07:28:07;;;;;;;10.20;8.30;;;23.30;50.70;;;;;;222075;1262;22523;-52
2023/03/17 07:33:19;;;;;;;12.40;8.80;;;23.30;51.00;;;;;;222218;1266;22518;-46
2023/03/17 07:38:23;;;;;;;12.10;8.20;;;23.30;51.10;;;;;;222134;1267;25374;-48
2023/03/17 07:43:27;;;;;;;17.00;8.30;;;23.20;51.30;;;;;;221973;1265;22514;-50
2023/03/17 07:48:32;;;;;;;14.70;8.40;;;23.10;51.60;;;;;;222045;1259;22477;-52
2023/03/17 07:53:36;;;;;;;11.80;8.30;;;23.10;51.40;;;;;;222177;1262;22518;-49
2023/03/17 07:58:40;;;;;;;14.40;8.20;;;23.10;51.90;;;;;;222234;1262;22889;-51
2023/03/17 08:03:45;;;;;;;13.30;8.10;;;23.00;52.00;;;;;;222211;1265;24212;-50
2023/03/17 08:08:51;;;;;;;12.90;8.40;;;22.90;51.80;;;;;;222049;1262;22526;-47
2023/03/17 08:13:55;;;;;;;17.00;8.80;;;23.00;52.10;;;;;;222204;1261;25263;-50
2023/03/17 08:18:59;;;;;;;21.30;8.90;;;23.00;52.00;;;;;;221962;1268;22511;-50
2023/03/17 08:24:04;;;;;;;14.00;8.70;;;22.80;52.20;;;;;;222220;1255;22782;-46
2023/03/17 08:29:09;;;;;;;11.60;8.20;;;22.80;52.90;;;;;;225271;1263;23018;-49
2023/03/17 08:34:13;;;;;;;13.10;8.60;;;22.80;52.70;;;;;;227157;1267;22520;-50
2023/03/17 08:39:18;;;;;;;17.40;9.00;;;22.90;52.60;;;;;;222325;1265;23877;-51
2023/03/17 08:44:22;;;;;;;10.00;7.70;;;22.80;52.50;;;;;;222240;1268;25588;-48
2023/03/17 08:49:26;;;;;;;16.30;8.80;;;22.70;52.70;;;;;;222413;1255;25337;-51
2023/03/17 08:54:30;;;;;;;12.10;8.30;;;22.60;52.90;;;;;;222362;1257;23879;-50
2023/03/17 08:59:34;;;;;;;12.00;8.70;;;22.60;52.60;;;;;;222415;1265;25207;-53
2023/03/17 09:04:39;;;;;;;10.60;8.60;;;22.60;52.50;;;;;;222229;1268;22649;-50
2023/03/17 09:09:42;;;;;;;10.10;8.20;;;22.50;52.80;;;;;;222152;1263;25384;-49
2023/03/17 09:14:47;;;;;;;10.50;7.90;;;22.40;52.80;;;;;;222298;1256;25334;-49
2023/03/17 09:19:51;;;;;;;14.70;8.00;;;22.40;52.70;;;;;;222303;1268;22761;-49
2023/03/17 09:24:55;;;;;;;12.40;7.90;;;22.40;52.60;;;;;;221937;1263;23945;-53
2023/03/17 09:29:59;;;;;;;12.30;8.30;;;22.50;52.40;;;;;;222166;1256;25447;-53
2023/03/17 09:35:04;;;;;;;18.10;10.40;;;22.60;52.10;;;;;;222222;1267;22743;-53
2023/03/17 09:40:15;;;;;;;16.80;9.20;;;22.60;53.10;;;;;;222303;1263;22517;-53
2023/03/17 09:45:40;;;;;;;18.70;10.20;;;22.70;56.10;;;;;;222107;1256;25239;-52
2023/03/17 09:50:56;;;;;;;15.90;9.80;;;22.90;55.30;;;;;;222043;1255;22514;-49
2023/03/17 09:56:07;;;;;;;13.20;8.80;;;22.80;54.00;;;;;;223485;1263;23922;-50
2023/03/17 10:01:12;;;;;;;13.30;8.40;;;22.70;53.50;;;;;;222157;1265;22515;-52
2023/03/17 10:06:41;;;;;;;14.00;8.60;;;22.70;54.00;;;;;;222038;1263;22531;-53
2023/03/17 10:11:47;;;;;;;11.00;8.30;;;22.70;53.30;;;;;;222205;1268;25384;-52
2023/03/17 10:17:08;;;;;;;10.60;8.20;;;22.70;53.30;;;;;;221948;1262;25323;-52
2023/03/17 10:22:15;;;;;;;12.50;8.40;;;22.70;53.00;;;;;;222053;1269;23646;-51
2023/03/17 10:27:20;;;;;;;11.40;7.40;;;22.70;52.90;;;;;;222208;1262;22514;-47
2023/03/17 10:32:25;;;;;;;11.80;9.20;;;22.60;52.70;;;;;;222620;1263;24193;-41
2023/03/17 10:37:35;;;;;;;10.80;7.90;;;22.60;53.40;;;;;;222297;1263;22517;-42
2023/03/17 10:42:47;;;;;;;11.70;7.90;;;22.70;53.40;;;;;;222172;1267;24239;-43
2023/03/17 10:47:55;;;;;;;12.00;8.70;;;22.80;53.20;;;;;;222133;1267;22661;-44
2023/03/17 10:53:19;;;;;;;9.70;7.40;;;22.80;53.50;;;;;;222344;1262;24161;-43
2023/03/17 10:58:42;;;;;;;10.40;7.60;;;22.90;52.90;;;;;;222240;1249;24191;-44
2023/03/17 11:03:47;;;;;;;8.70;6.80;;;22.90;52.60;;;;;;222183;1263;25316;-42
2023/03/17 11:08:54;;;;;;;10.50;7.60;;;22.90;52.60;;;;;;222130;1268;24247;-42
2023/03/17 11:14:03;;;;;;;9.20;7.40;;;23.00;52.40;;;;;;222086;1263;22736;-41
2023/03/17 11:19:14;;;;;;;12.20;6.40;;;22.90;52.50;;;;;;222144;1262;23255;-45
2023/03/17 11:24:29;;;;;;;7.90;6.60;;;22.90;52.40;;;;;;221832;1270;22559;-39
2023/03/17 11:29:37;;;;;;;9.60;6.80;;;22.80;52.30;;;;;;222351;1266;22926;-40
2023/03/17 11:35:22;;;;;;;8.90;6.30;;;22.80;52.20;;;;;;222344;1267;22523;-43
2023/03/17 11:40:34;;;;;;;9.50;6.20;;;22.70;49.20;;;;;;222068;1266;22526;-39
2023/03/17 11:46:17;;;;;;;9.90;6.20;;;22.60;49.00;;;;;;222040;1268;25435;-40
2023/03/17 11:51:50;;;;;;;7.80;5.30;;;22.70;49.70;;;;;;221956;1266;22652;-39
2023/03/17 11:57:02;;;;;;;10.60;6.00;;;22.60;50.00;;;;;;222083;1270;25194;-41
2023/03/17 12:02:21;;;;;;;8.50;6.10;;;22.60;50.50;;;;;;222039;1270;22903;-41
2023/03/17 12:07:34;;;;;;;6.80;5.80;;;22.60;50.60;;;;;;222191;1262;24246;-41
2023/03/17 12:12:46;;;;;;;9.50;5.90;;;22.60;50.60;;;;;;222285;1270;22643;-41
2023/03/17 12:18:25;;;;;;;5.90;5.30;;;22.60;50.60;;;;;;221921;1265;22523;-42
2023/03/17 12:23:46;;;;;;;8.60;5.90;;;22.50;50.60;;;;;;221915;1269;22517;-41
2023/03/17 12:29:03;;;;;;;7.30;5.30;;;22.60;50.80;;;;;;221983;1263;22528;-39
2023/03/17 12:34:10;;;;;;;9.70;5.40;;;22.50;50.50;;;;;;222016;1270;22550;-41
2023/03/17 12:39:20;;;;;;;5.20;4.40;;;22.50;50.70;;;;;;221881;1268;22520;-42
2023/03/17 12:44:45;;;;;;;6.50;4.60;;;22.50;50.40;;;;;;221926;1263;22631;-42
2023/03/17 12:49:56;;;;;;;6.60;5.60;;;22.50;50.40;;;;;;222065;1265;22912;-39
2023/03/17 12:55:03;;;;;;;6.20;5.10;;;22.60;50.40;;;;;;222176;1263;22682;-41
2023/03/17 13:00:24;;;;;;;7.60;5.60;;;22.60;50.10;;;;;;222250;1256;22525;-39
2023/03/17 13:05:32;;;;;;;6.20;4.80;;;22.60;50.40;;;;;;222232;1270;25384;-41
2023/03/17 13:10:46;;;;;;;6.60;5.60;;;22.60;49.90;;;;;;222359;1263;24180;-42
2023/03/17 13:15:54;;;;;;;6.20;4.90;;;22.60;50.00;;;;;;222132;1268;22658;-41
2023/03/17 13:20:58;;;;;;;6.10;4.60;;;22.60;50.00;;;;;;222245;1265;25593;-41
2023/03/17 13:26:03;;;;;;;5.60;4.50;;;22.60;49.70;;;;;;222235;1267;23930;-40
2023/03/17 13:31:25;;;;;;;5.80;4.40;;;22.60;49.70;;;;;;222274;1247;25580;-41
2023/03/17 13:36:44;;;;;;;4.60;4.10;;;22.60;49.70;;;;;;222661;1270;22745;-40
2023/03/17 13:42:12;;;;;;;4.80;4.10;;;22.60;49.60;;;;;;222288;1271;23929;-41
2023/03/17 13:47:21;;;;;;;7.20;4.80;;;22.50;49.60;;;;;;222572;1267;22514;-43
2023/03/17 13:52:31;;;;;;;5.50;4.30;;;22.50;49.50;;;;;;222300;1269;22704;-40
2023/03/17 13:57:38;;;;;;;4.50;4.00;;;22.50;49.40;;;;;;222052;1270;24058;-42
2023/03/17 14:02:43;;;;;;;6.60;4.40;;;22.60;49.40;;;;;;221947;1269;22564;-41
2023/03/17 14:07:55;;;;;;;4.30;3.80;;;22.60;49.70;;;;;;222097;1264;24703;-40
2023/03/17 14:13:05;;;;;;;4.20;3.80;;;22.50;49.60;;;;;;221965;1269;22627;-39
2023/03/17 14:18:18;;;;;;;4.60;4.20;;;22.50;49.70;;;;;;222096;1249;23904;-40
2023/03/17 14:23:23;;;;;;;6.20;4.50;;;22.50;49.30;;;;;;222218;1268;22512;-39
2023/03/17 14:28:31;;;;;;;5.60;3.90;;;22.50;49.50;;;;;;222221;1268;24412;-41
2023/03/17 14:33:39;;;;;;;4.80;3.70;;;22.50;49.00;;;;;;222189;1270;24211;-45
2023/03/17 14:38:50;;;;;;;4.50;4.10;;;22.50;49.10;;;;;;222293;1270;24220;-40
2023/03/17 14:43:59;;;;;;;4.00;3.50;;;22.50;49.00;;;;;;222294;1267;25217;-41
2023/03/17 14:49:19;;;;;;;4.60;4.00;;;22.60;48.90;;;;;;222228;1269;22658;-41
2023/03/17 14:54:33;;;;;;;4.00;3.60;;;22.60;48.70;;;;;;222187;1269;24211;-40
2023/03/17 14:59:40;;;;;;;3.90;3.60;;;22.50;48.70;;;;;;222054;1270;24994;-42
2023/03/17 15:04:57;;;;;;;4.40;4.00;;;22.50;48.70;;;;;;221979;1264;22512;-40
2023/03/17 15:10:03;;;;;;;4.40;3.80;;;22.50;48.40;;;;;;222215;1267;22666;-41
2023/03/17 15:15:22;;;;;;;4.10;3.20;;;22.30;48.60;;;;;;222130;1270;22519;-41
2023/03/17 15:20:30;;;;;;;4.20;3.50;;;22.30;48.60;;;;;;222150;1267;22527;-43
2023/03/17 15:25:41;;;;;;;3.60;3.30;;;22.30;48.60;;;;;;222215;1270;25501;-40
2023/03/17 15:30:50;;;;;;;3.60;3.10;;;22.20;48.80;;;;;;221958;1269;23520;-41
2023/03/17 15:35:58;;;;;;;3.70;3.40;;;22.20;48.80;;;;;;222414;1262;22612;-40
2023/03/17 15:41:06;;;;;;;5.80;3.50;;;22.10;49.10;;;;;;222076;1267;22534;-40
2023/03/17 15:46:30;;;;;;;10.80;3.70;;;22.00;48.70;;;;;;222125;1266;22547;-39
2023/03/17 15:51:38;;;;;;;11.40;3.90;;;22.00;48.90;;;;;;222227;1262;27046;-42
2023/03/17 15:56:42;;;;;;;8.60;4.40;;;22.10;48.80;;;;;;221440;1263;22963;-41
2023/03/17 16:01:46;;;;;;;8.70;5.60;;;22.00;48.50;;;;;;221463;1268;22518;-39
2023/03/17 16:06:50;;;;;;;10.50;5.70;;;21.90;49.10;;;;;;221266;1274;22549;-40
2023/03/17 16:11:55;;;;;;;12.70;5.90;;;21.90;49.80;;;;;;221320;1266;22629;-43
2023/03/17 16:16:59;;;;;;;16.90;4.90;;;21.90;50.80;;;;;;221395;1264;24051;-43
2023/03/17 16:22:03;;;;;;;10.30;4.60;;;22.00;50.70;;;;;;221301;1267;22612;-41
2023/03/17 16:27:14;;;;;;;7.10;4.50;;;21.90;50.70;;;;;;221825;1264;26497;-42
2023/03/17 16:32:19;;;;;;;13.00;4.60;;;21.90;50.80;;;;;;222736;1264;24216;-42
2023/03/17 16:37:23;;;;;;;7.40;4.60;;;21.90;50.80;;;;;;222290;1262;22660;-42
2023/03/17 16:42:27;;;;;;;13.00;5.00;;;21.80;51.30;;;;;;222290;1264;23001;-40
2023/03/17 16:47:32;;;;;;;7.70;4.10;;;22.00;51.70;;;;;;222230;1262;23980;-39
2023/03/17 16:52:36;;;;;;;16.20;4.80;;;22.00;51.50;;;;;;222174;1264;22502;-39
2023/03/17 16:57:44;;;;;;;12.90;4.70;;;22.00;51.60;;;;;;222003;1264;23816;-40
2023/03/17 17:02:48;;;;;;;21.90;4.60;;;21.90;51.60;;;;;;222153;1264;22598;-39
2023/03/17 17:07:56;;;;;;;14.60;5.80;;;21.90;51.70;;;;;;221974;1264;25814;-38
2023/03/17 17:13:03;;;;;;;11.10;4.00;;;21.90;51.90;;;;;;221988;1254;22523;-37
2023/03/17 17:18:15;;;;;;;14.40;4.50;;;21.90;50.70;;;;;;222086;1267;24237;-38
2023/03/17 17:23:22;;;;;;;14.40;5.40;;;21.90;52.00;;;;;;221993;1264;22539;-41
2023/03/17 17:28:27;;;;;;;10.90;4.80;;;22.00;51.50;;;;;;222086;1264;22581;-52
2023/03/17 17:33:35;;;;;;;9.60;4.00;;;21.90;51.80;;;;;;222475;1247;22518;-52
2023/03/17 17:38:42;;;;;;;7.10;3.80;;;22.00;51.40;;;;;;222261;1264;22715;-47
2023/03/17 17:43:48;;;;;;;7.60;4.00;;;21.90;51.10;;;;;;221946;1264;22535;-52
2023/03/17 17:48:54;;;;;;;8.00;4.20;;;21.90;51.40;;;;;;221658;1258;23119;-51
2023/03/17 17:54:01;;;;;;;9.10;3.80;;;21.80;51.30;;;;;;221867;1251;22515;-51
2023/03/17 17:59:09;;;;;;;12.20;4.20;;;21.80;51.70;;;;;;221788;1255;26494;-52
2023/03/17 18:04:15;;;;;;;6.50;3.70;;;21.90;51.50;;;;;;221676;1264;25017;-43
2023/03/17 18:09:21;;;;;;;8.00;3.60;;;22.30;50.80;;;;;;221868;1257;24315;-53
2023/03/17 18:14:28;;;;;;;12.70;4.10;;;22.70;50.00;;;;;;222073;1263;22566;-46
2023/03/17 18:19:36;;;;;;;7.70;4.00;;;22.90;50.00;;;;;;221963;1264;22524;-52
2023/03/17 18:24:43;;;;;;;8.20;3.90;;;23.00;49.70;;;;;;221865;1263;216329;-50
2023/03/17 18:29:48;;;;;;;9.50;4.00;;;23.00;49.30;;;;;;221973;1264;25271;-47
2023/03/17 18:34:57;;;;;;;15.60;4.10;;;23.00;49.20;;;;;;222085;1264;25383;-50
2023/03/17 18:40:04;;;;;;;7.90;3.70;;;23.10;49.00;;;;;;222240;1263;25613;-49
2023/03/17 18:45:23;;;;;;;9.00;3.60;;;23.10;49.00;;;;;;222262;1264;25677;-49
2023/03/17 18:50:31;;;;;;;8.50;4.00;;;23.20;49.00;;;;;;222068;1265;22961;-47
2023/03/17 18:55:37;;;;;;;4.90;3.30;;;23.30;48.80;;;;;;222206;1254;22539;-54
2023/03/17 19:00:43;;;;;;;6.70;3.60;;;23.30;49.00;;;;;;222001;1264;22511;-52
2023/03/17 19:05:50;;;;;;;4.50;3.20;;;23.40;48.80;;;;;;222082;1259;22644;-53
2023/03/17 19:10:56;;;;;;;8.50;3.60;;;23.50;48.50;;;;;;222076;1264;24683;-47
2023/03/17 19:16:07;;;;;;;8.20;3.40;;;23.50;48.30;;;;;;222130;1267;24774;-55
2023/03/17 19:21:13;;;;;;;7.90;3.50;;;23.40;48.80;;;;;;221798;1264;25227;-52
2023/03/17 19:26:19;;;;;;;12.80;4.70;;;23.30;49.00;;;;;;221868;1257;22507;-51
2023/03/17 19:31:27;;;;;;;6.70;3.50;;;23.20;49.60;;;;;;222063;1263;24183;-48
2023/03/17 19:36:36;;;;;;;10.10;3.90;;;23.00;49.40;;;;;;222118;1262;24227;-50
2023/03/17 19:41:46;;;;;;;7.40;4.10;;;23.00;50.20;;;;;;221981;1258;23078;-50
2023/03/17 19:46:53;;;;;;;12.80;3.70;;;22.90;50.10;;;;;;222175;1260;25371;-38
2023/03/17 19:52:00;;;;;;;7.10;3.70;;;22.90;49.60;;;;;;221959;1256;22522;-40
2023/03/17 19:57:07;;;;;;;7.40;3.70;;;22.80;50.20;;;;;;222126;1263;25498;-38
2023/03/17 20:02:15;;;;;;;11.40;3.70;;;22.60;50.00;;;;;;222034;1264;24254;-41
2023/03/17 20:07:23;;;;;;;13.00;4.30;;;22.60;50.80;;;;;;222054;1250;24085;-43
2023/03/17 20:12:36;;;;;;;10.60;4.00;;;22.70;50.90;;;;;;222047;1261;22521;-39
2023/03/17 20:17:42;;;;;;;;;;;22.60;51.20;;;;;;222050;1263;22785;-38
2023/03/17 20:22:48;;;;;;;23.70;6.30;;;22.50;51.50;;;;;;221857;1263;22645;-42
2023/03/17 20:27:55;;;;;;;8.50;5.60;;;22.60;51.10;;;;;;222052;1262;24149;-40
2023/03/17 20:33:00;;;;;;;11.30;5.60;;;22.60;51.40;;;;;;221999;1264;24058;-39
2023/03/17 20:38:07;;;;;;;9.10;6.20;;;22.50;52.30;;;;;;221933;1263;22514;-39
2023/03/17 20:43:14;;;;;;;11.00;5.20;;;22.50;52.80;;;;;;222058;1264;25518;-41
2023/03/17 20:48:20;;;;;;;9.30;5.00;;;22.50;52.30;;;;;;222065;1263;24247;-38
2023/03/17 20:53:29;;;;;;;10.30;4.50;;;22.50;52.10;;;;;;222042;1262;22798;-37
2023/03/17 20:58:45;;;;;;;10.60;5.40;;;22.50;52.00;;;;;;222070;1262;25351;-38
2023/03/17 21:03:52;;;;;;;7.30;4.60;;;22.50;52.10;;;;;;221944;1264;22520;-38
2023/03/17 21:08:58;;;;;;;10.30;5.10;;;22.40;52.10;;;;;;222037;1263;25491;-40
2023/03/17 21:14:06;;;;;;;11.50;5.00;;;22.30;52.10;;;;;;221949;1264;23950;-39
2023/03/17 21:19:14;;;;;;;9.20;4.70;;;22.10;52.40;;;;;;221766;1246;22519;-38
2023/03/17 21:24:30;;;;;;;5.90;4.50;;;22.00;52.50;;;;;;221951;1255;22521;-38
2023/03/17 21:29:42;;;;;;;9.90;5.40;;;22.10;53.20;;;;;;222090;1262;23677;-38
2023/03/17 21:34:56;;;;;;;11.50;4.90;;;22.20;54.00;;;;;;222209;1258;24209;-40
2023/03/17 21:40:29;;;;;;;11.30;4.90;;;22.20;53.90;;;;;;222485;1265;24236;-42
2023/03/17 21:45:48;;;;;;;8.40;5.20;;;22.10;54.10;;;;;;222413;1267;24230;-40
2023/03/17 21:51:08;;;;;;;7.40;4.70;;;22.10;53.40;;;;;;222227;1262;24219;-44
2023/03/17 21:56:26;;;;;;;6.00;4.70;;;22.00;53.80;;;;;;222593;1245;22521;-44
2023/03/17 22:01:40;;;;;;;8.80;4.70;;;21.80;53.90;;;;;;222687;1253;22523;-43
2023/03/17 22:06:57;;;;;;;9.70;5.20;;;21.70;53.50;;;;;;222588;1262;23258;-46
2023/03/17 22:12:11;;;;;;;6.90;4.90;;;21.70;53.80;;;;;;222337;1262;24180;-41
2023/03/17 22:17:25;;;;;;;6.20;4.20;;;21.60;53.50;;;;;;222706;1263;25227;-44
2023/03/17 22:22:37;;;;;;;7.60;4.50;;;21.60;53.50;;;;;;222575;1262;25671;-42
2023/03/17 22:27:48;;;;;;;8.20;4.60;;;21.60;53.20;;;;;;222691;1246;22605;-45
2023/03/17 22:32:57;;;;;;;10.00;5.50;;;21.50;53.10;;;;;;222729;1260;22651;-41
2023/03/17 22:38:07;;;;;;;7.20;5.10;;;21.70;56.00;;;;;;222727;1255;26513;-43
2023/03/17 22:43:13;;;;;;;12.80;5.80;;;21.70;56.40;;;;;;222677;1269;22520;-41
2023/03/17 22:48:22;;;;;;;8.90;5.80;;;21.80;55.90;;;;;;222663;1262;22661;-41
2023/03/17 22:53:31;;;;;;;15.40;5.10;;;21.70;55.50;;;;;;222689;1262;22639;-41
2023/03/17 22:58:40;;;;;;;9.60;5.10;;;21.60;55.30;;;;;;222745;1262;23944;-41
2023/03/17 23:03:49;;;;;;;8.80;4.70;;;21.60;54.90;;;;;;222602;1262;25281;-43
2023/03/17 23:08:53;;;;;;;10.20;5.40;;;21.60;54.60;;;;;;223390;1262;26473;-44
2023/03/17 23:13:57;;;;;;;9.50;5.10;;;22.00;53.80;;;;;;222923;1252;23916;-42
2023/03/17 23:19:03;;;;;;;8.60;5.00;;;22.40;52.70;;;;;;222915;1255;22567;-43
2023/03/17 23:24:07;;;;;;;6.60;4.80;;;22.70;52.00;;;;;;222901;1262;22518;-42
2023/03/17 23:29:11;;;;;;;9.80;4.60;;;22.80;51.50;;;;;;222906;1255;24328;-42
2023/03/17 23:34:15;;;;;;;7.30;4.60;;;23.00;50.80;;;;;;222651;1260;24216;-43
2023/03/17 23:39:20;;;;;;;12.00;5.30;;;23.20;50.30;;;;;;222416;1262;22660;-40
2023/03/17 23:44:24;;;;;;;9.20;5.10;;;23.10;50.20;;;;;;222298;1260;25483;-42
2023/03/17 23:49:28;;;;;;;6.30;4.50;;;23.10;50.00;;;;;;222371;1262;22548;-43
2023/03/17 23:54:32;;;;;;;8.40;5.10;;;23.10;50.10;;;;;;222396;1262;22507;-42
2023/03/17 23:59:36;;;;;;;6.60;5.30;;;23.10;49.80;;;;;;222426;1263;25135;-42
